createdAt,value
2022-08-26T00:14:31.648Z,22.30
2022-08-26T00:44:34.701Z,17.97
2022-08-26T01:14:38.170Z,22.07
2022-08-26T01:44:42.417Z,18.07
2022-08-26T02:14:47.123Z,20.90
2022-08-26T02:44:50.421Z,21.60
2022-08-26T03:14:54.469Z,16.53
2022-08-26T03:44:57.580Z,21.65
2022-08-26T04:15:01.548Z,22.70
2022-08-26T04:45:10.192Z,27.57
2022-08-26T05:15:14.011Z,24.10
2022-08-26T05:45:17.038Z,20.63
2022-08-26T06:15:20.607Z,21.70
2022-08-26T06:45:24.161Z,17.17
2022-08-26T07:15:31.502Z,11.77
2022-08-26T07:45:35.217Z,13.20
2022-08-26T08:15:39.182Z,13.53
2022-08-26T08:45:42.137Z,10.57
2022-08-26T10:18:10.116Z,11.70
2022-08-26T10:48:14.358Z,7.43
2022-08-26T11:18:17.781Z,13.27
2022-08-26T11:48:22.028Z,9.03
2022-08-26T12:18:29.348Z,10.70
2022-08-26T12:48:33.312Z,10.23
2022-08-26T13:18:38.050Z,8.97
2022-08-26T13:48:41.339Z,9.37
2022-08-26T14:48:54.252Z,8.67
2022-08-26T15:19:05.317Z,9.00
2022-08-26T15:49:08.735Z,12.23
2022-08-26T16:19:21.643Z,11.03
2022-08-26T16:49:25.161Z,8.27
2022-08-26T17:19:29.288Z,10.63
2022-08-26T17:49:39.392Z,7.80
2022-08-26T18:19:44.532Z,9.70
2022-08-26T18:49:48.071Z,12.40
2022-08-26T19:19:52.640Z,9.30
2022-08-26T19:49:56.466Z,17.07
2022-08-26T20:20:02.443Z,14.87
2022-08-26T20:50:06.095Z,14.00
2022-08-26T21:20:11.927Z,12.10
2022-08-26T21:50:15.181Z,10.87
2022-08-26T22:20:18.977Z,13.25
2022-08-26T22:50:21.879Z,12.27
2022-08-26T23:20:26.013Z,14.00
2022-08-26T23:50:28.735Z,10.57
